Terminal Aerodrome Forecast
Issued by NWS

Home | Current Version | Previous Version | Text Only | Print | Product List | Glossary On
Versions: 1 2 3 4 5 6 7 8 9 10 11 12 13
000
FTUS43 KICT 121122
TAFRSL
TAF
KRSL 121122Z 1212/1312 27008KT P6SM FEW035
     FM121700 24009KT P6SM SKC
     FM130000 21007KT P6SM SKC
     FM131000 29013G19KT P6SM SKC=

USA.gov is the U.S. government's official web portal to all federal, state and local government web resources and services.